Provencal, LA (71468)

7:15 AM CDT on April 29, 2017 (GMT -0500)
Shamard Subdivision Area | | Change Station
Active Advisory: Lake Wind Advisory

Elev 206 ft 31.74 °N, 93.13 °W | Updated 13 seconds ago

Overcast
Overcast
76.3 °F
Feels Like 76 °F
N
4.0
Wind Variable Wind from SE
Gusts 13.4 mph

Today
High -- | Low -- °F
--% Chance of Precip.
Yesterday
High -- | Low -- °F
Precip. -- in
Pressure 29.75 in
Visibility 7.0 miles
Clouds Mostly Cloudy 2300 ft
Overcast 4200 ft
Heat Index 76 °F
Dew Point 74 °F
Humidity 93%
Rainfall 0.00 in
Snow Depth Not available.
6:29 AM 7:51 PM
Waxing Crescent, 13% visible
METAR KIER 291155Z AUTO 17015G23KT 7SM BKN023 OVC042 25/22 A2975 RMK AO2 T02480221 10252 20240
Pressure 29.75 in
Visibility 7.0 miles
Clouds Mostly Cloudy 2300 ft
Overcast 4200 ft
Heat Index 76 °F
Dew Point 74 °F
Humidity 93%
Rainfall 0.00 in
Snow Depth Not available.
6:29 AM 7:51 PM
Waxing Crescent, 13% visible
METAR KIER 291155Z AUTO 17015G23KT 7SM BKN023 OVC042 25/22 A2975 RMK AO2 T02480221 10252 20240

Get Your Daily Forecast Email!

Thanks for signing up!

Be on the lookout for a verification email in your inbox.

You'll start receiving severe weather alerts in your inbox..

×

10-Day Weather Forecast

Almanac

Astronomy

Apr. 29, 2017 Rise Set
Actual Time
Civil Twilight
Nautical Twilight
Astronomical Twilight
Moon
Length of Visible Light
Length of Day
Tomorrow will be .
, % of the Moon is Illuminated

Today's Extremes

State Highs State Lows

Community

WunderPhotos

WunderBlog® & News

Nearby

Air Quality

  Air Quality AQ Index Pollutant
Not available.

Snow Depth

Station Depth Elevation

Earthquake Activity

City Distance Mag. Time & Date
Minimum magnitude displayed is 2.5.

Coastal Water Temperatures

Place Temperature

Stations

Nearby Weather Stations

Station Location Temp. Windchill Dew Point Humidity Wind Precip. Elev Updated Type
                   

Watches & Warnings

Lake Wind Advisory
Issued: 4:19 AM CDT Apr. 29, 2017 – National Weather Service

... Lake Wind Advisory now in effect until 7 am CDT Sunday...

* event... a very tight pressure gradient across the Southern
Plains will result in strong southerly winds of 15-25 mph with
gusts to 35-40 mph over all of East Texas, extreme southern
Arkansas, and north Louisiana today and tonight.

* Timing... through 7 am CDT Sunday.

* Impact... boaters should exercise caution on area lakes due to
rough chop conditions.

Precautionary/preparedness actions...

A lake Wind Advisory indicates that winds will cause rough chop
on area lakes. Small boats will be especially prone to capsizing.



15